sensor_id;sensor_type;location;lat;lon;timestamp;temperature;humidity
66594;DHT22;53450;42.584;23.366;2023-12-22T00:02:07;-0.75;84.02
66594;DHT22;53450;42.584;23.366;2023-12-22T00:04:33;-0.87;83.73
66594;DHT22;53450;42.584;23.366;2023-12-22T00:06:58;-0.78;84.08
66594;DHT22;53450;42.584;23.366;2023-12-22T00:09:24;-0.70;83.47
66594;DHT22;53450;42.584;23.366;2023-12-22T00:11:49;-0.64;83.44
66594;DHT22;53450;42.584;23.366;2023-12-22T00:14:15;-0.68;83.59
66594;DHT22;53450;42.584;23.366;2023-12-22T00:16:40;-0.61;83.51
66594;DHT22;53450;42.584;23.366;2023-12-22T00:19:06;-0.72;83.06
66594;DHT22;53450;42.584;23.366;2023-12-22T00:21:32;-0.67;83.65
66594;DHT22;53450;42.584;23.366;2023-12-22T00:23:58;-0.71;83.83
66594;DHT22;53450;42.584;23.366;2023-12-22T00:26:23;-0.62;83.91
66594;DHT22;53450;42.584;23.366;2023-12-22T00:28:49;-0.77;84.04
66594;DHT22;53450;42.584;23.366;2023-12-22T00:31:14;-0.67;83.79
66594;DHT22;53450;42.584;23.366;2023-12-22T00:33:40;-0.78;83.81
66594;DHT22;53450;42.584;23.366;2023-12-22T00:36:06;-0.70;83.43
66594;DHT22;53450;42.584;23.366;2023-12-22T00:38:31;-0.77;83.90
66594;DHT22;53450;42.584;23.366;2023-12-22T00:40:57;-0.71;83.70
66594;DHT22;53450;42.584;23.366;2023-12-22T00:43:23;-0.57;83.50
66594;DHT22;53450;42.584;23.366;2023-12-22T00:45:48;-0.58;83.50
66594;DHT22;53450;42.584;23.366;2023-12-22T00:48:14;-0.60;83.48
66594;DHT22;53450;42.584;23.366;2023-12-22T00:50:41;-0.61;83.72
66594;DHT22;53450;42.584;23.366;2023-12-22T00:53:07;-0.49;83.50
66594;DHT22;53450;42.584;23.366;2023-12-22T00:55:32;-0.33;83.44
66594;DHT22;53450;42.584;23.366;2023-12-22T00:57:58;-0.05;81.88
66594;DHT22;53450;42.584;23.366;2023-12-22T01:00:23;0.21;80.96
66594;DHT22;53450;42.584;23.366;2023-12-22T01:02:49;1.01;78.19
66594;DHT22;53450;42.584;23.366;2023-12-22T01:05:14;1.49;75.79
66594;DHT22;53450;42.584;23.366;2023-12-22T01:07:40;1.79;74.45
66594;DHT22;53450;42.584;23.366;2023-12-22T01:10:06;1.69;74.50
66594;DHT22;53450;42.584;23.366;2023-12-22T01:12:32;1.31;75.61
66594;DHT22;53450;42.584;23.366;2023-12-22T01:14:57;1.10;76.84
66594;DHT22;53450;42.584;23.366;2023-12-22T01:17:23;1.04;77.21
66594;DHT22;53450;42.584;23.366;2023-12-22T01:19:49;1.01;77.79
66594;DHT22;53450;42.584;23.366;2023-12-22T01:22:14;0.96;78.11
66594;DHT22;53450;42.584;23.366;2023-12-22T01:24:40;0.69;78.81
66594;DHT22;53450;42.584;23.366;2023-12-22T01:27:09;0.62;79.44
66594;DHT22;53450;42.584;23.366;2023-12-22T01:29:35;0.50;79.55
66594;DHT22;53450;42.584;23.366;2023-12-22T01:32:01;0.56;80.16
66594;DHT22;53450;42.584;23.366;2023-12-22T01:34:26;0.62;80.15
66594;DHT22;53450;42.584;23.366;2023-12-22T01:36:52;0.53;80.46
66594;DHT22;53450;42.584;23.366;2023-12-22T01:39:17;0.63;80.78
66594;DHT22;53450;42.584;23.366;2023-12-22T01:41:43;0.58;80.94
66594;DHT22;53450;42.584;23.366;2023-12-22T01:44:08;0.66;81.12
66594;DHT22;53450;42.584;23.366;2023-12-22T01:46:36;0.56;81.30
66594;DHT22;53450;42.584;23.366;2023-12-22T01:49:02;0.53;81.38
66594;DHT22;53450;42.584;23.366;2023-12-22T01:51:29;0.46;81.56
66594;DHT22;53450;42.584;23.366;2023-12-22T01:53:55;0.55;81.49
66594;DHT22;53450;42.584;23.366;2023-12-22T01:56:20;0.55;81.31
66594;DHT22;53450;42.584;23.366;2023-12-22T01:58:46;0.48;81.15
66594;DHT22;53450;42.584;23.366;2023-12-22T02:01:17;0.44;81.33
66594;DHT22;53450;42.584;23.366;2023-12-22T02:03:44;0.41;81.84
66594;DHT22;53450;42.584;23.366;2023-12-22T02:06:10;0.53;81.25
66594;DHT22;53450;42.584;23.366;2023-12-22T02:08:36;0.53;81.38
66594;DHT22;53450;42.584;23.366;2023-12-22T02:11:02;0.59;81.63
66594;DHT22;53450;42.584;23.366;2023-12-22T02:13:28;0.62;81.60
66594;DHT22;53450;42.584;23.366;2023-12-22T02:16:01;0.56;81.65
66594;DHT22;53450;42.584;23.366;2023-12-22T02:18:33;0.67;81.79
66594;DHT22;53450;42.584;23.366;2023-12-22T02:21:00;0.66;81.31
66594;DHT22;53450;42.584;23.366;2023-12-22T02:23:25;0.83;81.32
66594;DHT22;53450;42.584;23.366;2023-12-22T02:25:55;0.76;81.19
66594;DHT22;53450;42.584;23.366;2023-12-22T02:28:23;0.94;81.05
66594;DHT22;53450;42.584;23.366;2023-12-22T02:30:56;1.08;80.46
66594;DHT22;53450;42.584;23.366;2023-12-22T02:33:23;1.05;80.41
66594;DHT22;53450;42.584;23.366;2023-12-22T02:35:50;1.20;80.01
66594;DHT22;53450;42.584;23.366;2023-12-22T02:38:16;1.32;79.29
66594;DHT22;53450;42.584;23.366;2023-12-22T02:40:43;1.48;78.10
66594;DHT22;53450;42.584;23.366;2023-12-22T02:43:09;1.56;78.72
66594;DHT22;53450;42.584;23.366;2023-12-22T02:45:35;1.65;77.92
66594;DHT22;53450;42.584;23.366;2023-12-22T02:48:01;1.85;76.20
66594;DHT22;53450;42.584;23.366;2023-12-22T02:50:26;1.97;76.72
66594;DHT22;53450;42.584;23.366;2023-12-22T02:52:52;2.31;76.28
66594;DHT22;53450;42.584;23.366;2023-12-22T02:55:17;2.75;75.29
66594;DHT22;53450;42.584;23.366;2023-12-22T02:57:43;2.93;75.15
66594;DHT22;53450;42.584;23.366;2023-12-22T03:01:26;3.09;75.05
66594;DHT22;53450;42.584;23.366;2023-12-22T03:03:51;3.16;74.92
66594;DHT22;53450;42.584;23.366;2023-12-22T03:06:17;3.20;75.49
66594;DHT22;53450;42.584;23.366;2023-12-22T03:08:43;3.28;75.63
66594;DHT22;53450;42.584;23.366;2023-12-22T03:11:08;3.31;75.81
66594;DHT22;53450;42.584;23.366;2023-12-22T03:13:34;3.38;75.63
66594;DHT22;53450;42.584;23.366;2023-12-22T03:15:59;3.37;76.66
66594;DHT22;53450;42.584;23.366;2023-12-22T03:18:25;3.50;75.19
66594;DHT22;53450;42.584;23.366;2023-12-22T03:20:50;3.67;74.88
66594;DHT22;53450;42.584;23.366;2023-12-22T03:23:16;3.71;74.88
66594;DHT22;53450;42.584;23.366;2023-12-22T03:25:41;3.75;75.40
66594;DHT22;53450;42.584;23.366;2023-12-22T03:28:07;3.73;75.39
66594;DHT22;53450;42.584;23.366;2023-12-22T03:30:33;3.07;74.68
66594;DHT22;53450;42.584;23.366;2023-12-22T03:33:01;2.26;76.64
66594;DHT22;53450;42.584;23.366;2023-12-22T03:35:26;1.92;78.69
66594;DHT22;53450;42.584;23.366;2023-12-22T03:37:52;1.63;79.76
66594;DHT22;53450;42.584;23.366;2023-12-22T03:40:18;1.37;79.45
66594;DHT22;53450;42.584;23.366;2023-12-22T03:42:43;1.34;81.30
66594;DHT22;53450;42.584;23.366;2023-12-22T03:45:09;1.60;82.22
66594;DHT22;53450;42.584;23.366;2023-12-22T03:47:34;1.79;81.81
66594;DHT22;53450;42.584;23.366;2023-12-22T03:50:00;1.87;80.61
66594;DHT22;53450;42.584;23.366;2023-12-22T03:52:25;1.77;80.30
66594;DHT22;53450;42.584;23.366;2023-12-22T03:54:51;1.62;80.36
66594;DHT22;53450;42.584;23.366;2023-12-22T03:57:17;1.42;81.34
66594;DHT22;53450;42.584;23.366;2023-12-22T03:59:42;1.32;81.74
66594;DHT22;53450;42.584;23.366;2023-12-22T04:02:08;1.31;81.87
66594;DHT22;53450;42.584;23.366;2023-12-22T04:04:37;1.28;81.90
66594;DHT22;53450;42.584;23.366;2023-12-22T04:07:03;1.24;81.36
66594;DHT22;53450;42.584;23.366;2023-12-22T04:09:29;1.28;81.29
66594;DHT22;53450;42.584;23.366;2023-12-22T04:11:54;1.38;81.32
66594;DHT22;53450;42.584;23.366;2023-12-22T04:14:20;1.38;80.79
66594;DHT22;53450;42.584;23.366;2023-12-22T04:16:45;1.21;80.60
66594;DHT22;53450;42.584;23.366;2023-12-22T04:19:11;1.28;81.36
66594;DHT22;53450;42.584;23.366;2023-12-22T04:21:36;1.18;81.79
66594;DHT22;53450;42.584;23.366;2023-12-22T04:24:02;1.24;81.79
66594;DHT22;53450;42.584;23.366;2023-12-22T04:26:28;1.34;81.55
66594;DHT22;53450;42.584;23.366;2023-12-22T04:28:54;1.47;81.38
66594;DHT22;53450;42.584;23.366;2023-12-22T04:31:19;1.58;81.34
66594;DHT22;53450;42.584;23.366;2023-12-22T04:33:45;1.45;81.41
66594;DHT22;53450;42.584;23.366;2023-12-22T04:36:10;1.42;82.42
66594;DHT22;53450;42.584;23.366;2023-12-22T04:38:36;1.45;82.52
66594;DHT22;53450;42.584;23.366;2023-12-22T04:41:02;1.26;83.10
66594;DHT22;53450;42.584;23.366;2023-12-22T04:43:27;1.18;83.62
66594;DHT22;53450;42.584;23.366;2023-12-22T04:45:53;1.28;83.86
66594;DHT22;53450;42.584;23.366;2023-12-22T04:48:19;1.44;83.74
66594;DHT22;53450;42.584;23.366;2023-12-22T04:50:44;1.55;83.53
66594;DHT22;53450;42.584;23.366;2023-12-22T04:53:10;1.63;83.72
66594;DHT22;53450;42.584;23.366;2023-12-22T04:55:36;1.47;84.12
66594;DHT22;53450;42.584;23.366;2023-12-22T04:58:01;1.52;84.56
66594;DHT22;53450;42.584;23.366;2023-12-22T05:00:27;1.38;84.73
66594;DHT22;53450;42.584;23.366;2023-12-22T05:02:52;1.42;84.85
66594;DHT22;53450;42.584;23.366;2023-12-22T05:05:18;1.18;85.15
66594;DHT22;53450;42.584;23.366;2023-12-22T05:07:43;1.30;85.40
66594;DHT22;53450;42.584;23.366;2023-12-22T05:10:09;1.07;85.56
66594;DHT22;53450;42.584;23.366;2023-12-22T05:12:34;0.90;86.10
66594;DHT22;53450;42.584;23.366;2023-12-22T05:15:00;0.93;85.98
66594;DHT22;53450;42.584;23.366;2023-12-22T05:17:25;1.13;86.00
66594;DHT22;53450;42.584;23.366;2023-12-22T05:19:51;1.23;85.46
66594;DHT22;53450;42.584;23.366;2023-12-22T05:22:17;1.28;85.64
66594;DHT22;53450;42.584;23.366;2023-12-22T05:24:42;1.16;85.91
66594;DHT22;53450;42.584;23.366;2023-12-22T05:27:08;0.98;86.40
66594;DHT22;53450;42.584;23.366;2023-12-22T05:29:34;1.07;86.46
66594;DHT22;53450;42.584;23.366;2023-12-22T05:32:00;1.01;86.68
66594;DHT22;53450;42.584;23.366;2023-12-22T05:34:25;1.23;86.42
66594;DHT22;53450;42.584;23.366;2023-12-22T05:36:51;1.21;86.41
66594;DHT22;53450;42.584;23.366;2023-12-22T05:39:16;1.18;86.61
66594;DHT22;53450;42.584;23.366;2023-12-22T05:41:42;1.37;86.60
66594;DHT22;53450;42.584;23.366;2023-12-22T05:44:07;1.41;86.27
66594;DHT22;53450;42.584;23.366;2023-12-22T05:46:37;1.49;86.22
66594;DHT22;53450;42.584;23.366;2023-12-22T05:49:06;1.52;86.14
66594;DHT22;53450;42.584;23.366;2023-12-22T05:51:41;1.37;86.29
66594;DHT22;53450;42.584;23.366;2023-12-22T05:54:08;1.34;86.23
66594;DHT22;53450;42.584;23.366;2023-12-22T05:56:33;1.47;85.65
66594;DHT22;53450;42.584;23.366;2023-12-22T05:58:59;1.44;85.35
66594;DHT22;53450;42.584;23.366;2023-12-22T06:01:25;1.44;85.48
66594;DHT22;53450;42.584;23.366;2023-12-22T06:03:50;1.44;85.91
66594;DHT22;53450;42.584;23.366;2023-12-22T06:06:16;1.52;86.10
66594;DHT22;53450;42.584;23.366;2023-12-22T06:08:41;1.55;86.10
66594;DHT22;53450;42.584;23.366;2023-12-22T06:11:07;1.49;86.06
66594;DHT22;53450;42.584;23.366;2023-12-22T06:13:33;1.44;86.27
66594;DHT22;53450;42.584;23.366;2023-12-22T06:15:58;1.34;86.48
66594;DHT22;53450;42.584;23.366;2023-12-22T06:18:24;1.39;86.55
66594;DHT22;53450;42.584;23.366;2023-12-22T06:20:50;1.60;85.92
66594;DHT22;53450;42.584;23.366;2023-12-22T06:23:15;1.54;85.76
66594;DHT22;53450;42.584;23.366;2023-12-22T06:25:41;1.48;86.16
66594;DHT22;53450;42.584;23.366;2023-12-22T06:28:06;1.41;86.44
66594;DHT22;53450;42.584;23.366;2023-12-22T06:30:32;1.65;86.24
66594;DHT22;53450;42.584;23.366;2023-12-22T06:32:58;1.63;85.93
66594;DHT22;53450;42.584;23.366;2023-12-22T06:35:23;1.55;85.95
66594;DHT22;53450;42.584;23.366;2023-12-22T06:37:53;1.70;85.53
66594;DHT22;53450;42.584;23.366;2023-12-22T06:40:20;1.77;85.62
66594;DHT22;53450;42.584;23.366;2023-12-22T06:42:46;1.90;84.95
66594;DHT22;53450;42.584;23.366;2023-12-22T06:45:11;1.93;85.10
66594;DHT22;53450;42.584;23.366;2023-12-22T06:47:37;1.85;85.38
66594;DHT22;53450;42.584;23.366;2023-12-22T06:50:02;1.85;84.97
66594;DHT22;53450;42.584;23.366;2023-12-22T06:52:29;1.76;85.28
66594;DHT22;53450;42.584;23.366;2023-12-22T06:54:56;1.79;84.97
66594;DHT22;53450;42.584;23.366;2023-12-22T06:57:22;1.79;85.33
66594;DHT22;53450;42.584;23.366;2023-12-22T06:59:47;1.79;85.11
66594;DHT22;53450;42.584;23.366;2023-12-22T07:02:14;1.82;85.34
66594;DHT22;53450;42.584;23.366;2023-12-22T07:04:40;1.86;85.86
66594;DHT22;53450;42.584;23.366;2023-12-22T07:07:05;1.87;85.82
66594;DHT22;53450;42.584;23.366;2023-12-22T07:09:31;1.87;85.62
66594;DHT22;53450;42.584;23.366;2023-12-22T07:11:57;1.83;85.94
66594;DHT22;53450;42.584;23.366;2023-12-22T07:14:23;1.86;84.82
66594;DHT22;53450;42.584;23.366;2023-12-22T07:16:49;1.86;85.46
66594;DHT22;53450;42.584;23.366;2023-12-22T07:19:15;1.86;85.48
66594;DHT22;53450;42.584;23.366;2023-12-22T07:21:41;1.93;85.65
66594;DHT22;53450;42.584;23.366;2023-12-22T07:24:07;2.07;85.35
66594;DHT22;53450;42.584;23.366;2023-12-22T07:26:33;2.00;84.83
66594;DHT22;53450;42.584;23.366;2023-12-22T07:28:58;2.11;84.63
66594;DHT22;53450;42.584;23.366;2023-12-22T07:31:24;2.17;84.76
66594;DHT22;53450;42.584;23.366;2023-12-22T07:33:50;2.13;84.97
66594;DHT22;53450;42.584;23.366;2023-12-22T07:36:17;2.26;84.80
66594;DHT22;53450;42.584;23.366;2023-12-22T07:38:44;2.16;85.32
66594;DHT22;53450;42.584;23.366;2023-12-22T07:41:10;2.17;85.91
66594;DHT22;53450;42.584;23.366;2023-12-22T07:43:36;2.33;86.10
66594;DHT22;53450;42.584;23.366;2023-12-22T07:46:01;2.37;85.27
66594;DHT22;53450;42.584;23.366;2023-12-22T07:48:27;2.37;85.13
66594;DHT22;53450;42.584;23.366;2023-12-22T07:50:52;2.26;85.10
66594;DHT22;53450;42.584;23.366;2023-12-22T07:53:19;2.11;85.66
66594;DHT22;53450;42.584;23.366;2023-12-22T07:55:45;2.07;85.84
66594;DHT22;53450;42.584;23.366;2023-12-22T07:58:12;2.18;85.90
66594;DHT22;53450;42.584;23.366;2023-12-22T08:00:37;2.33;85.77
66594;DHT22;53450;42.584;23.366;2023-12-22T08:03:03;2.42;84.91
66594;DHT22;53450;42.584;23.366;2023-12-22T08:05:29;2.45;85.11
66594;DHT22;53450;42.584;23.366;2023-12-22T08:07:58;2.40;85.33
66594;DHT22;53450;42.584;23.366;2023-12-22T08:10:24;2.49;85.21
66594;DHT22;53450;42.584;23.366;2023-12-22T08:12:49;2.45;85.17
66594;DHT22;53450;42.584;23.366;2023-12-22T08:15:15;2.45;85.24
66594;DHT22;53450;42.584;23.366;2023-12-22T08:17:48;2.52;84.97
66594;DHT22;53450;42.584;23.366;2023-12-22T08:20:20;2.51;85.13
66594;DHT22;53450;42.584;23.366;2023-12-22T08:22:50;2.47;85.32
66594;DHT22;53450;42.584;23.366;2023-12-22T08:25:16;2.42;85.57
66594;DHT22;53450;42.584;23.366;2023-12-22T08:27:46;2.58;85.72
66594;DHT22;53450;42.584;23.366;2023-12-22T08:30:12;2.59;85.19
66594;DHT22;53450;42.584;23.366;2023-12-22T08:32:38;2.52;85.42
66594;DHT22;53450;42.584;23.366;2023-12-22T08:35:04;2.61;85.65
66594;DHT22;53450;42.584;23.366;2023-12-22T08:37:30;2.74;85.44
66594;DHT22;53450;42.584;23.366;2023-12-22T08:39:56;2.68;85.36
66594;DHT22;53450;42.584;23.366;2023-12-22T08:42:23;2.64;85.50
66594;DHT22;53450;42.584;23.366;2023-12-22T08:44:50;2.66;85.69
66594;DHT22;53450;42.584;23.366;2023-12-22T08:47:15;2.74;85.69
66594;DHT22;53450;42.584;23.366;2023-12-22T08:49:41;2.91;85.15
66594;DHT22;53450;42.584;23.366;2023-12-22T08:52:07;2.99;84.86
66594;DHT22;53450;42.584;23.366;2023-12-22T08:54:33;3.03;84.75
66594;DHT22;53450;42.584;23.366;2023-12-22T08:57:01;3.09;84.88
66594;DHT22;53450;42.584;23.366;2023-12-22T08:59:27;3.23;84.65
66594;DHT22;53450;42.584;23.366;2023-12-22T09:01:53;3.13;84.63
66594;DHT22;53450;42.584;23.366;2023-12-22T09:04:18;3.28;84.66
66594;DHT22;53450;42.584;23.366;2023-12-22T09:06:50;3.37;84.41
66594;DHT22;53450;42.584;23.366;2023-12-22T09:09:16;3.50;84.03
66594;DHT22;53450;42.584;23.366;2023-12-22T09:11:42;3.53;83.65
66594;DHT22;53450;42.584;23.366;2023-12-22T09:14:08;3.41;83.74
66594;DHT22;53450;42.584;23.366;2023-12-22T09:16:35;3.37;84.19
66594;DHT22;53450;42.584;23.366;2023-12-22T09:19:01;3.37;84.38
66594;DHT22;53450;42.584;23.366;2023-12-22T09:21:27;3.17;84.71
66594;DHT22;53450;42.584;23.366;2023-12-22T09:23:53;2.92;85.80
66594;DHT22;53450;42.584;23.366;2023-12-22T09:26:18;2.75;85.93
66594;DHT22;53450;42.584;23.366;2023-12-22T09:28:44;2.93;85.85
66594;DHT22;53450;42.584;23.366;2023-12-22T09:31:10;3.07;85.30
66594;DHT22;53450;42.584;23.366;2023-12-22T09:33:36;3.13;84.91
66594;DHT22;53450;42.584;23.366;2023-12-22T09:36:02;3.17;84.71
66594;DHT22;53450;42.584;23.366;2023-12-22T09:38:27;3.17;84.83
66594;DHT22;53450;42.584;23.366;2023-12-22T09:40:55;3.13;84.85
66594;DHT22;53450;42.584;23.366;2023-12-22T09:43:21;3.24;84.53
66594;DHT22;53450;42.584;23.366;2023-12-22T09:45:48;3.33;84.15
66594;DHT22;53450;42.584;23.366;2023-12-22T09:48:15;3.36;84.24
66594;DHT22;53450;42.584;23.366;2023-12-22T09:50:43;3.40;84.14
66594;DHT22;53450;42.584;23.366;2023-12-22T09:53:11;3.30;84.71
66594;DHT22;53450;42.584;23.366;2023-12-22T09:55:39;3.34;84.65
66594;DHT22;53450;42.584;23.366;2023-12-22T09:58:05;3.34;84.74
66594;DHT22;53450;42.584;23.366;2023-12-22T10:00:31;3.44;84.64
66594;DHT22;53450;42.584;23.366;2023-12-22T10:02:57;3.55;84.58
66594;DHT22;53450;42.584;23.366;2023-12-22T10:05:23;3.50;84.35
66594;DHT22;53450;42.584;23.366;2023-12-22T10:07:49;3.60;84.53
66594;DHT22;53450;42.584;23.366;2023-12-22T10:10:16;3.57;84.82
66594;DHT22;53450;42.584;23.366;2023-12-22T10:12:44;3.67;85.13
66594;DHT22;53450;42.584;23.366;2023-12-22T10:15:12;3.71;85.06
66594;DHT22;53450;42.584;23.366;2023-12-22T10:17:38;3.77;85.10
66594;DHT22;53450;42.584;23.366;2023-12-22T10:20:04;3.84;84.79
66594;DHT22;53450;42.584;23.366;2023-12-22T10:22:30;3.79;84.74
66594;DHT22;53450;42.584;23.366;2023-12-22T10:24:55;3.58;85.01
66594;DHT22;53450;42.584;23.366;2023-12-22T10:27:21;3.64;84.83
66594;DHT22;53450;42.584;23.366;2023-12-22T10:29:51;3.71;84.59
66594;DHT22;53450;42.584;23.366;2023-12-22T10:32:20;3.91;84.15
66594;DHT22;53450;42.584;23.366;2023-12-22T10:34:47;4.01;83.54
66594;DHT22;53450;42.584;23.366;2023-12-22T10:37:12;4.02;83.13
66594;DHT22;53450;42.584;23.366;2023-12-22T10:39:38;4.10;83.51
66594;DHT22;53450;42.584;23.366;2023-12-22T10:42:04;4.22;83.54
66594;DHT22;53450;42.584;23.366;2023-12-22T10:44:30;4.22;83.71
66594;DHT22;53450;42.584;23.366;2023-12-22T10:46:56;4.23;83.67
66594;DHT22;53450;42.584;23.366;2023-12-22T10:49:23;4.19;83.62
66594;DHT22;53450;42.584;23.366;2023-12-22T10:51:49;4.16;83.78
66594;DHT22;53450;42.584;23.366;2023-12-22T10:54:15;4.28;83.53
66594;DHT22;53450;42.584;23.366;2023-12-22T10:56:41;4.28;83.27
66594;DHT22;53450;42.584;23.366;2023-12-22T10:59:07;4.42;82.58
66594;DHT22;53450;42.584;23.366;2023-12-22T11:01:35;4.50;82.65
66594;DHT22;53450;42.584;23.366;2023-12-22T11:04:09;4.58;82.71
66594;DHT22;53450;42.584;23.366;2023-12-22T11:06:36;4.61;82.76
66594;DHT22;53450;42.584;23.366;2023-12-22T11:09:09;4.75;82.92
66594;DHT22;53450;42.584;23.366;2023-12-22T11:11:37;4.85;81.95
66594;DHT22;53450;42.584;23.366;2023-12-22T11:14:04;5.08;81.44
66594;DHT22;53450;42.584;23.366;2023-12-22T11:16:30;5.02;81.21
66594;DHT22;53450;42.584;23.366;2023-12-22T11:18:56;5.23;81.11
66594;DHT22;53450;42.584;23.366;2023-12-22T11:21:23;5.42;80.72
66594;DHT22;53450;42.584;23.366;2023-12-22T11:23:49;5.70;79.67
66594;DHT22;53450;42.584;23.366;2023-12-22T11:26:17;5.86;78.35
66594;DHT22;53450;42.584;23.366;2023-12-22T11:28:45;5.83;78.02
66594;DHT22;53450;42.584;23.366;2023-12-22T11:31:11;5.93;77.66
66594;DHT22;53450;42.584;23.366;2023-12-22T11:33:40;5.84;77.32
66594;DHT22;53450;42.584;23.366;2023-12-22T11:36:08;5.66;78.55
66594;DHT22;53450;42.584;23.366;2023-12-22T11:38:33;5.52;78.23
66594;DHT22;53450;42.584;23.366;2023-12-22T11:41:00;5.47;78.45
66594;DHT22;53450;42.584;23.366;2023-12-22T11:43:27;5.15;80.31
66594;DHT22;53450;42.584;23.366;2023-12-22T11:45:53;5.01;80.91
66594;DHT22;53450;42.584;23.366;2023-12-22T11:48:19;4.95;81.07
66594;DHT22;53450;42.584;23.366;2023-12-22T11:50:46;4.81;81.51
66594;DHT22;53450;42.584;23.366;2023-12-22T11:53:24;4.74;81.55
66594;DHT22;53450;42.584;23.366;2023-12-22T11:58:34;5.01;78.19
66594;DHT22;53450;42.584;23.366;2023-12-22T12:01:10;5.04;78.49
66594;DHT22;53450;42.584;23.366;2023-12-22T12:03:58;4.85;79.21
66594;DHT22;53450;42.584;23.366;2023-12-22T12:08:56;5.02;75.85
66594;DHT22;53450;42.584;23.366;2023-12-22T12:11:23;5.12;73.23
66594;DHT22;53450;42.584;23.366;2023-12-22T12:13:50;5.15;72.39
66594;DHT22;53450;42.584;23.366;2023-12-22T12:16:20;5.01;72.20
66594;DHT22;53450;42.584;23.366;2023-12-22T12:18:49;5.07;72.65
66594;DHT22;53450;42.584;23.366;2023-12-22T12:21:15;5.15;73.56
66594;DHT22;53450;42.584;23.366;2023-12-22T12:23:41;5.19;73.91
66594;DHT22;53450;42.584;23.366;2023-12-22T12:26:08;5.21;73.13
66594;DHT22;53450;42.584;23.366;2023-12-22T12:28:35;5.11;69.86
66594;DHT22;53450;42.584;23.366;2023-12-22T12:31:07;5.01;70.35
66594;DHT22;53450;42.584;23.366;2023-12-22T12:33:35;5.01;69.55
66594;DHT22;53450;42.584;23.366;2023-12-22T12:36:02;5.02;70.10
66594;DHT22;53450;42.584;23.366;2023-12-22T12:38:45;5.05;69.99
66594;DHT22;53450;42.584;23.366;2023-12-22T12:41:11;5.07;69.29
66594;DHT22;53450;42.584;23.366;2023-12-22T12:43:41;5.18;69.27
66594;DHT22;53450;42.584;23.366;2023-12-22T12:46:08;5.07;68.11
66594;DHT22;53450;42.584;23.366;2023-12-22T12:48:33;5.15;63.45
66594;DHT22;53450;42.584;23.366;2023-12-22T12:51:03;5.31;64.14
66594;DHT22;53450;42.584;23.366;2023-12-22T12:53:31;5.29;59.55
66594;DHT22;53450;42.584;23.366;2023-12-22T12:55:58;5.29;64.35
66594;DHT22;53450;42.584;23.366;2023-12-22T12:58:28;5.35;65.78
66594;DHT22;53450;42.584;23.366;2023-12-22T13:01:07;5.12;67.06
66594;DHT22;53450;42.584;23.366;2023-12-22T13:03:33;5.01;67.51
66594;DHT22;53450;42.584;23.366;2023-12-22T13:06:11;5.16;55.45
66594;DHT22;53450;42.584;23.366;2023-12-22T13:08:37;5.42;55.22
66594;DHT22;53450;42.584;23.366;2023-12-22T13:11:06;5.39;57.15
66594;DHT22;53450;42.584;23.366;2023-12-22T13:13:40;5.32;57.09
66594;DHT22;53450;42.584;23.366;2023-12-22T13:16:06;5.28;58.25
66594;DHT22;53450;42.584;23.366;2023-12-22T13:18:35;5.21;57.24
66594;DHT22;53450;42.584;23.366;2023-12-22T13:21:01;5.23;55.78
66594;DHT22;53450;42.584;23.366;2023-12-22T13:23:27;5.35;55.79
66594;DHT22;53450;42.584;23.366;2023-12-22T13:25:53;5.29;54.25
66594;DHT22;53450;42.584;23.366;2023-12-22T13:28:28;5.25;57.03
66594;DHT22;53450;42.584;23.366;2023-12-22T13:30:54;5.21;58.22
66594;DHT22;53450;42.584;23.366;2023-12-22T13:35:23;5.02;59.69
66594;DHT22;53450;42.584;23.366;2023-12-22T13:37:49;4.99;58.56
66594;DHT22;53450;42.584;23.366;2023-12-22T13:40:15;4.94;57.31
66594;DHT22;53450;42.584;23.366;2023-12-22T13:42:40;5.08;56.01
66594;DHT22;53450;42.584;23.366;2023-12-22T13:45:11;5.09;55.22
66594;DHT22;53450;42.584;23.366;2023-12-22T13:47:42;5.02;58.20
66594;DHT22;53450;42.584;23.366;2023-12-22T13:50:17;4.95;57.32
66594;DHT22;53450;42.584;23.366;2023-12-22T13:52:44;4.88;55.95
66594;DHT22;53450;42.584;23.366;2023-12-22T13:55:15;5.04;54.85
66594;DHT22;53450;42.584;23.366;2023-12-22T13:57:42;4.98;55.96
66594;DHT22;53450;42.584;23.366;2023-12-22T14:02:49;4.96;55.97
66594;DHT22;53450;42.584;23.366;2023-12-22T14:05:17;4.96;57.05
66594;DHT22;53450;42.584;23.366;2023-12-22T14:07:44;4.98;56.94
66594;DHT22;53450;42.584;23.366;2023-12-22T14:10:10;4.89;57.77
66594;DHT22;53450;42.584;23.366;2023-12-22T14:12:37;4.91;57.24
66594;DHT22;53450;42.584;23.366;2023-12-22T14:15:09;4.89;58.45
66594;DHT22;53450;42.584;23.366;2023-12-22T14:17:36;4.84;59.48
66594;DHT22;53450;42.584;23.366;2023-12-22T14:20:02;4.78;59.68
66594;DHT22;53450;42.584;23.366;2023-12-22T14:22:29;4.70;60.70
66594;DHT22;53450;42.584;23.366;2023-12-22T14:24:55;4.77;60.17
66594;DHT22;53450;42.584;23.366;2023-12-22T14:27:23;4.71;60.52
66594;DHT22;53450;42.584;23.366;2023-12-22T14:29:48;4.65;60.80
66594;DHT22;53450;42.584;23.366;2023-12-22T14:32:14;4.67;61.27
66594;DHT22;53450;42.584;23.366;2023-12-22T14:34:41;4.61;60.35
66594;DHT22;53450;42.584;23.366;2023-12-22T14:37:06;4.65;59.75
66594;DHT22;53450;42.584;23.366;2023-12-22T14:39:32;4.58;59.22
66594;DHT22;53450;42.584;23.366;2023-12-22T14:41:59;4.54;60.25
66594;DHT22;53450;42.584;23.366;2023-12-22T14:44:25;4.57;58.29
66594;DHT22;53450;42.584;23.366;2023-12-22T14:46:50;4.58;58.92
66594;DHT22;53450;42.584;23.366;2023-12-22T14:49:16;4.68;55.90
66594;DHT22;53450;42.584;23.366;2023-12-22T14:51:43;4.67;55.60
66594;DHT22;53450;42.584;23.366;2023-12-22T14:54:09;4.71;55.14
66594;DHT22;53450;42.584;23.366;2023-12-22T14:56:38;4.67;55.74
66594;DHT22;53450;42.584;23.366;2023-12-22T14:59:04;4.68;56.05
66594;DHT22;53450;42.584;23.366;2023-12-22T15:01:29;4.56;56.38
66594;DHT22;53450;42.584;23.366;2023-12-22T15:03:58;4.56;55.33
66594;DHT22;53450;42.584;23.366;2023-12-22T15:06:24;4.53;56.24
66594;DHT22;53450;42.584;23.366;2023-12-22T15:08:50;4.50;56.84
66594;DHT22;53450;42.584;23.366;2023-12-22T15:11:15;4.47;57.71
66594;DHT22;53450;42.584;23.366;2023-12-22T15:13:41;4.46;58.31
66594;DHT22;53450;42.584;23.366;2023-12-22T15:16:07;4.43;59.56
66594;DHT22;53450;42.584;23.366;2023-12-22T15:18:33;4.42;58.65
66594;DHT22;53450;42.584;23.366;2023-12-22T15:20:59;4.49;57.25
66594;DHT22;53450;42.584;23.366;2023-12-22T15:23:24;4.56;54.10
66594;DHT22;53450;42.584;23.366;2023-12-22T15:25:51;4.56;54.60
66594;DHT22;53450;42.584;23.366;2023-12-22T15:28:17;4.56;54.99
66594;DHT22;53450;42.584;23.366;2023-12-22T15:30:43;4.50;55.16
66594;DHT22;53450;42.584;23.366;2023-12-22T15:33:09;4.44;54.01
66594;DHT22;53450;42.584;23.366;2023-12-22T15:35:34;4.47;53.16
66594;DHT22;53450;42.584;23.366;2023-12-22T15:38:00;4.46;53.96